createdAt,value
2022-10-05T00:09:37.844Z,2144.0005
2022-10-05T00:24:39.672Z,2088.85475
2022-10-05T00:39:41.532Z,2048.93016
2022-10-05T00:54:43.374Z,2028.76659
2022-10-05T01:09:45.203Z,2041.12769
2022-10-05T01:24:47.020Z,2018.07279
2022-10-05T01:39:48.875Z,2056.79252
2022-10-05T01:54:50.739Z,2053.64035
2022-10-05T02:09:52.567Z,2071.09787
2022-10-05T02:24:54.418Z,2072.69965
2022-10-05T02:39:56.242Z,2087.22792
2022-10-05T02:54:58.104Z,2061.53896
2022-10-05T03:10:01.239Z,1957.63381
2022-10-05T03:25:03.327Z,1485.5881
2022-10-05T03:40:05.219Z,1419.49204
2022-10-05T03:55:07.078Z,1447.08475
2022-10-05T04:10:08.948Z,1424.01752
2022-10-05T04:25:10.784Z,1436.22774
2022-10-05T04:40:12.635Z,1447.08475
2022-10-05T04:55:14.494Z,1445.52371
2022-10-05T05:10:16.333Z,1450.21697
2022-10-05T05:25:18.152Z,1419.49204
2022-10-05T05:40:19.999Z,1407.56354
2022-10-05T05:55:24.354Z,1420.99733
2022-10-05T06:10:28.354Z,1387.16407
2022-10-05T06:25:30.199Z,1443.96603
2022-10-05T06:40:31.972Z,1606.71512
2022-10-05T06:55:33.811Z,1742.52325
2022-10-05T07:10:35.666Z,1767.81052
2022-10-05T07:25:37.509Z,1821.89037
2022-10-05T07:40:39.331Z,1792.64264
2022-10-05T07:55:41.140Z,1680.25128
2022-10-05T08:10:42.953Z,1621.29511
2022-10-05T08:25:44.810Z,1584.86152
2022-10-05T08:40:46.659Z,1654.32148
2022-10-05T08:55:48.489Z,1675.00049
2022-10-05T09:10:50.311Z,1696.20303
2022-10-05T09:25:52.166Z,1708.09482
2022-10-05T09:40:54.000Z,1740.26024
2022-10-05T09:55:55.855Z,962.64418
2022-10-05T10:10:57.690Z,1122.27856
2022-10-05T10:25:59.543Z,1322.80406
2022-10-05T10:41:01.406Z,1459.6955
2022-10-05T10:56:03.260Z,1561.77205
2022-10-05T11:11:05.085Z,1653.30093
2022-10-05T11:26:06.932Z,1720.15454
2022-10-05T11:41:08.801Z,1808.36757
2022-10-05T11:56:10.658Z,1883.34554
2022-10-05T12:11:12.501Z,1951.93058
2022-10-05T12:26:14.324Z,1997.01987
2022-10-05T12:41:16.136Z,2038.02331
2022-10-05T12:56:17.992Z,2098.66926
2022-10-05T13:11:19.856Z,2137.16159
2022-10-05T13:26:21.672Z,2178.86229
2022-10-05T13:41:23.519Z,1904.7624
2022-10-05T13:56:25.378Z,1205.03648
2022-10-05T14:11:27.209Z,1119.46583
2022-10-05T14:26:29.057Z,1127.94663
2022-10-05T14:41:30.885Z,1167.24789
2022-10-05T14:56:32.702Z,1210.47928
2022-10-05T15:11:34.506Z,1257.03615
2022-10-05T15:26:36.381Z,1312.43929
2022-10-05T15:41:38.210Z,1303.50245
2022-10-05T15:56:40.054Z,1299.70953
2022-10-05T16:11:41.911Z,1592.39503
2022-10-05T16:26:43.728Z,1912.91984
2022-10-05T16:41:45.583Z,2028.76659
2022-10-05T16:56:47.442Z,2123.61382
2022-10-05T17:11:49.279Z,2163.03521
2022-10-05T17:26:51.103Z,2173.56093
2022-10-05T17:41:52.945Z,2133.75847
2022-10-05T17:56:54.761Z,1967.69507
2022-10-05T18:11:56.597Z,1907.47381
2022-10-05T18:26:58.439Z,1944.8481
2022-10-05T18:42:00.279Z,1900.70972
2022-10-05T18:57:02.096Z,1876.7512
2022-10-05T19:12:03.910Z,2052.06788
2022-10-05T19:27:05.759Z,2132.06096
2022-10-05T19:42:07.688Z,2120.25367
2022-10-05T19:57:09.555Z,2103.61118
2022-10-05T20:12:11.381Z,2106.91874
2022-10-05T20:27:15.799Z,2088.85475
2022-10-05T20:42:18.108Z,2019.59357
2022-10-05T20:57:19.975Z,1998.50908
2022-10-05T21:12:21.922Z,1983.71627
2022-10-05T21:27:23.774Z,1991.0852
2022-10-05T21:42:25.603Z,2015.03809
2022-10-05T21:57:27.450Z,2002.99004
2022-10-05T22:12:29.287Z,1979.32103
2022-10-05T22:27:31.375Z,1970.58873
2022-10-05T22:42:33.165Z,1961.93315
2022-10-05T22:57:34.960Z,1976.40168
2022-10-05T23:12:37.780Z,1985.18568
2022-10-05T23:27:39.616Z,1933.62243
2022-10-05T23:42:41.437Z,1845.73052
2022-10-05T23:57:43.286Z,1729.03275
